createdAt,value
2022-12-03T00:02:27.415Z,24.92
2022-12-03T00:05:32.695Z,26.52
2022-12-03T00:08:37.357Z,24.95
2022-12-03T00:11:42.093Z,24.80
2022-12-03T00:14:46.781Z,23.23
2022-12-03T00:17:51.681Z,24.63
2022-12-03T00:20:56.573Z,25.15
2022-12-03T00:24:01.682Z,26.00
2022-12-03T00:27:06.335Z,24.67
2022-12-03T00:30:12.153Z,23.83
2022-12-03T00:33:17.214Z,24.17
2022-12-03T00:36:21.969Z,24.95
2022-12-03T00:39:26.735Z,25.30
2022-12-03T00:42:31.712Z,24.55
2022-12-03T00:45:36.845Z,24.40
2022-12-03T00:48:41.724Z,25.02
2022-12-03T00:51:46.515Z,25.42
2022-12-03T00:54:51.840Z,24.65
2022-12-03T00:57:56.750Z,25.85
2022-12-03T01:01:01.847Z,25.27
2022-12-03T01:04:07.078Z,24.77
2022-12-03T01:07:11.902Z,26.63
2022-12-03T01:10:17.476Z,23.63
2022-12-03T01:13:22.541Z,23.40
2022-12-03T01:16:27.511Z,24.13
2022-12-03T01:19:33.904Z,24.92
2022-12-03T01:22:38.908Z,22.40
2022-12-03T01:25:43.895Z,22.10
2022-12-03T01:28:48.795Z,22.33
2022-12-03T01:32:12.627Z,22.35
2022-12-03T01:35:17.884Z,22.35
2022-12-03T01:38:22.713Z,22.33
2022-12-03T01:41:27.592Z,22.48
2022-12-03T01:44:34.756Z,23.00
2022-12-03T01:47:39.725Z,22.05
2022-12-03T01:50:45.195Z,20.90
2022-12-03T01:53:50.455Z,20.88
2022-12-03T01:56:55.686Z,19.70
2022-12-03T02:00:01.198Z,25.00
2022-12-03T02:03:18.928Z,25.13
2022-12-03T02:06:26.497Z,24.38
2022-12-03T02:09:31.493Z,25.67
2022-12-03T02:12:49.212Z,24.50
2022-12-03T02:15:54.184Z,23.85
2022-12-03T02:18:59.391Z,25.00
2022-12-03T02:22:20.774Z,25.15
2022-12-03T02:25:32.018Z,25.30
2022-12-03T02:28:38.071Z,26.88
2022-12-03T02:31:43.930Z,24.92
2022-12-03T02:34:49.925Z,25.05
2022-12-03T02:38:09.467Z,24.55
2022-12-03T02:41:37.974Z,25.05
2022-12-03T02:44:42.855Z,24.33
2022-12-03T02:48:03.593Z,25.73
2022-12-03T02:51:10.670Z,24.50
2022-12-03T02:54:15.683Z,24.55
2022-12-03T02:57:20.788Z,25.67
2022-12-03T03:00:25.498Z,26.10
2022-12-03T03:03:30.836Z,24.88
2022-12-03T03:06:35.847Z,27.23
2022-12-03T03:09:40.793Z,25.48
2022-12-03T03:12:46.204Z,26.30
2022-12-03T03:15:51.013Z,26.45
2022-12-03T03:18:56.109Z,26.38
2022-12-03T03:22:00.927Z,25.95
2022-12-03T03:25:09.396Z,26.40
2022-12-03T03:28:15.471Z,24.35
2022-12-03T03:31:23.344Z,24.88
2022-12-03T03:34:28.396Z,25.50
2022-12-03T03:37:33.621Z,26.83
2022-12-03T03:40:38.629Z,27.02
2022-12-03T03:43:44.893Z,26.63
2022-12-03T03:46:49.809Z,26.35
2022-12-03T03:49:54.818Z,25.73
2022-12-03T03:53:01.303Z,26.20
2022-12-03T03:56:06.485Z,24.05
2022-12-03T03:59:13.425Z,26.10
2022-12-03T04:02:24.575Z,25.02
2022-12-03T04:05:29.445Z,24.65
2022-12-03T04:08:34.242Z,25.10
2022-12-03T04:11:57.791Z,24.67
2022-12-03T04:15:02.853Z,24.33
2022-12-03T04:18:26.417Z,24.80
2022-12-03T04:21:49.913Z,23.58
2022-12-03T04:25:17.785Z,25.00
2022-12-03T04:28:40.819Z,25.70
2022-12-03T04:32:04.927Z,23.00
2022-12-03T04:35:31.489Z,22.50
2022-12-03T04:38:36.578Z,24.33
2022-12-03T04:41:44.644Z,24.48
2022-12-03T04:44:52.995Z,23.60
2022-12-03T04:47:57.948Z,22.83
2022-12-03T04:51:02.756Z,23.00
2022-12-03T04:54:07.505Z,22.95
2022-12-03T04:57:12.503Z,23.40
2022-12-03T05:00:17.712Z,24.08
2022-12-03T05:03:22.729Z,23.13
2022-12-03T05:06:27.505Z,23.33
2022-12-03T05:09:32.322Z,25.13
2022-12-03T05:12:37.178Z,22.65
2022-12-03T05:15:42.403Z,25.63
2022-12-03T05:18:47.344Z,28.20
2022-12-03T05:21:52.405Z,27.80
2022-12-03T05:24:57.065Z,31.38
2022-12-03T05:28:02.323Z,27.20
2022-12-03T05:31:07.517Z,28.05
2022-12-03T05:34:12.311Z,27.85
2022-12-03T05:37:17.483Z,27.15
2022-12-03T05:40:22.274Z,25.00
2022-12-03T05:43:27.516Z,24.30
2022-12-03T05:46:32.909Z,23.42
2022-12-03T05:49:37.770Z,22.98
2022-12-03T05:52:42.531Z,21.35
2022-12-03T05:55:47.489Z,22.20
2022-12-03T05:58:52.467Z,22.50
2022-12-03T06:01:57.372Z,21.25
2022-12-03T06:05:02.398Z,21.05
2022-12-03T06:08:07.342Z,21.90
2022-12-03T06:11:12.053Z,21.75
2022-12-03T06:14:17.124Z,21.40
2022-12-03T06:17:22.049Z,21.40
2022-12-03T06:20:27.042Z,22.55
2022-12-03T06:23:31.986Z,23.25
2022-12-03T06:26:36.667Z,23.23
2022-12-03T06:29:42.657Z,24.20
2022-12-03T06:32:47.371Z,22.98
2022-12-03T06:35:52.372Z,21.42
2022-12-03T06:38:57.663Z,23.35
2022-12-03T06:42:03.104Z,21.35
2022-12-03T06:45:08.608Z,25.83
2022-12-03T06:48:13.438Z,24.70
2022-12-03T06:51:18.240Z,24.80
2022-12-03T06:54:23.257Z,31.55
2022-12-03T06:57:28.338Z,26.70
2022-12-03T07:00:33.205Z,25.42
2022-12-03T07:03:38.409Z,28.45
2022-12-03T07:06:43.702Z,20.90
2022-12-03T07:09:48.688Z,23.50
2022-12-03T07:12:53.808Z,21.30
2022-12-03T07:15:58.673Z,20.90
2022-12-03T07:19:05.573Z,20.65
2022-12-03T07:22:10.736Z,21.65
2022-12-03T07:25:22.637Z,20.30
2022-12-03T07:28:28.170Z,19.98
2022-12-03T07:31:33.418Z,21.10
2022-12-03T07:34:39.387Z,21.45
2022-12-03T07:37:44.226Z,21.27
2022-12-03T07:40:49.293Z,20.98
2022-12-03T07:43:54.201Z,21.40
2022-12-03T07:46:59.436Z,20.42
2022-12-03T07:50:04.903Z,20.75
2022-12-03T07:53:10.027Z,21.55
2022-12-03T07:56:14.848Z,21.92
2022-12-03T07:59:19.686Z,20.77
2022-12-03T08:02:24.510Z,21.55
2022-12-03T08:05:29.776Z,21.45
2022-12-03T08:08:34.856Z,20.60
2022-12-03T08:11:40.441Z,20.95
2022-12-03T08:14:45.513Z,21.85
2022-12-03T08:17:59.396Z,22.40
2022-12-03T08:21:09.057Z,24.52
2022-12-03T08:24:20.826Z,22.65
2022-12-03T08:27:25.695Z,23.95
2022-12-03T08:30:30.711Z,25.85
2022-12-03T08:33:36.930Z,25.25
2022-12-03T08:36:42.217Z,25.88
2022-12-03T08:39:50.493Z,26.08
2022-12-03T08:42:55.475Z,25.88
2022-12-03T08:46:00.555Z,26.40
2022-12-03T08:49:05.516Z,25.02
2022-12-03T08:52:16.551Z,25.13
2022-12-03T08:55:39.561Z,25.02
2022-12-03T08:58:48.193Z,25.30
2022-12-03T09:01:53.769Z,26.25
2022-12-03T09:04:59.476Z,25.58
2022-12-03T09:08:04.449Z,25.20
2022-12-03T09:11:08.973Z,25.02
2022-12-03T09:14:18.480Z,25.77
2022-12-03T09:17:23.865Z,26.13
2022-12-03T09:20:28.703Z,24.15
2022-12-03T09:23:33.521Z,24.45
2022-12-03T09:26:38.391Z,24.77
2022-12-03T09:29:43.308Z,25.10
2022-12-03T09:32:48.070Z,23.10
2022-12-03T09:35:52.982Z,24.88
2022-12-03T09:38:58.216Z,24.33
2022-12-03T09:42:03.568Z,26.02
2022-12-03T09:45:12.261Z,28.40
2022-12-03T09:48:19.230Z,27.58
2022-12-03T09:51:29.726Z,25.92
2022-12-03T09:54:34.897Z,23.35
2022-12-03T09:57:40.156Z,25.48
2022-12-03T10:00:50.634Z,24.80
2022-12-03T10:03:55.754Z,25.98
2022-12-03T10:07:00.763Z,27.20
2022-12-03T10:10:08.479Z,27.77
2022-12-03T10:13:26.764Z,27.95
2022-12-03T10:16:31.631Z,30.00
2022-12-03T10:19:37.554Z,32.17
2022-12-03T10:22:42.374Z,29.88
2022-12-03T10:26:04.920Z,29.98
2022-12-03T10:29:33.701Z,28.48
2022-12-03T10:32:42.229Z,30.08
2022-12-03T10:35:47.439Z,32.05
2022-12-03T10:39:15.702Z,31.10
2022-12-03T10:42:20.509Z,33.97
2022-12-03T10:45:25.376Z,31.65
2022-12-03T10:48:30.206Z,30.92
2022-12-03T10:51:35.686Z,33.25
2022-12-03T10:54:40.865Z,32.30
2022-12-03T10:57:46.364Z,26.77
2022-12-03T11:00:55.413Z,25.63
2022-12-03T11:04:05.836Z,25.67
2022-12-03T11:07:22.025Z,25.45
2022-12-03T11:10:26.877Z,25.33
2022-12-03T11:13:44.716Z,30.17
2022-12-03T11:16:52.577Z,30.13
2022-12-03T11:19:58.475Z,31.15
2022-12-03T11:23:03.454Z,31.17
2022-12-03T11:26:08.610Z,32.67
2022-12-03T11:29:14.684Z,27.75
2022-12-03T11:32:37.999Z,30.65
2022-12-03T11:36:04.489Z,26.98
2022-12-03T11:39:09.321Z,26.13
2022-12-03T11:42:26.400Z,32.08
2022-12-03T11:45:38.080Z,30.85
2022-12-03T11:48:50.789Z,29.90
2022-12-03T11:51:57.283Z,30.33
2022-12-03T11:55:18.051Z,30.05
2022-12-03T11:58:29.251Z,28.48
2022-12-03T12:01:39.154Z,30.38
2022-12-03T12:04:47.044Z,28.75
2022-12-03T12:07:52.740Z,32.63
2022-12-03T12:10:58.482Z,31.02
2022-12-03T12:14:09.268Z,30.30
2022-12-03T12:17:35.015Z,29.33
2022-12-03T12:20:40.408Z,29.05
2022-12-03T12:23:45.305Z,28.85
2022-12-03T12:26:51.608Z,31.08
2022-12-03T12:30:03.839Z,29.15
2022-12-03T12:33:26.136Z,29.58
2022-12-03T12:36:32.074Z,29.13
2022-12-03T12:39:36.953Z,29.30
2022-12-03T12:42:52.349Z,30.38
2022-12-03T12:46:18.551Z,26.35
2022-12-03T12:49:26.888Z,24.90
2022-12-03T12:52:31.759Z,25.55
2022-12-03T12:55:38.459Z,25.15
2022-12-03T12:58:43.497Z,25.42
2022-12-03T13:01:50.447Z,24.17
2022-12-03T13:05:13.619Z,24.58
2022-12-03T13:08:39.631Z,25.58
2022-12-03T13:11:47.184Z,24.90
2022-12-03T13:14:52.729Z,24.15
2022-12-03T13:17:57.949Z,26.95
2022-12-03T13:21:38.418Z,25.42
2022-12-03T13:24:50.824Z,27.83
2022-12-03T13:27:55.861Z,29.30
2022-12-03T13:31:18.700Z,24.52
2022-12-03T13:34:26.645Z,23.20
2022-12-03T13:37:32.115Z,21.23
2022-12-03T13:40:37.991Z,22.67
2022-12-03T13:43:44.592Z,41.67
2022-12-03T13:46:50.277Z,38.13
2022-12-03T13:49:58.906Z,25.88
2022-12-03T13:53:19.120Z,25.10
2022-12-03T13:56:29.050Z,44.28
2022-12-03T13:59:33.921Z,23.98
2022-12-03T14:02:38.975Z,21.80
2022-12-03T14:05:43.804Z,22.02
2022-12-03T14:08:48.896Z,24.08
2022-12-03T14:12:12.355Z,19.85
2022-12-03T14:15:17.413Z,21.58
2022-12-03T14:18:22.460Z,19.70
2022-12-03T14:21:27.690Z,21.13
2022-12-03T14:24:32.616Z,19.77
2022-12-03T14:27:37.338Z,21.13
2022-12-03T14:30:42.093Z,20.55
2022-12-03T14:33:46.983Z,19.80
2022-12-03T14:36:51.853Z,23.40
2022-12-03T14:39:57.285Z,21.52
2022-12-03T14:43:03.230Z,24.50
2022-12-03T14:46:08.136Z,22.45
2022-12-03T14:49:13.060Z,23.25
2022-12-03T14:52:18.592Z,22.40
2022-12-03T14:55:23.323Z,19.98
2022-12-03T14:58:28.218Z,24.30
2022-12-03T15:01:33.404Z,22.45
2022-12-03T15:04:39.706Z,22.10
2022-12-03T15:07:44.923Z,21.55
2022-12-03T15:10:50.023Z,22.55
2022-12-03T15:13:54.880Z,24.63
2022-12-03T15:17:00.110Z,23.13
2022-12-03T15:20:06.033Z,21.08
2022-12-03T15:23:14.198Z,26.15
2022-12-03T15:26:19.596Z,22.98
2022-12-03T15:29:24.334Z,22.05
2022-12-03T15:32:29.083Z,21.50
2022-12-03T15:35:34.136Z,22.10
2022-12-03T15:38:39.252Z,21.88
2022-12-03T15:41:44.179Z,20.50
2022-12-03T15:44:49.068Z,21.27
2022-12-03T15:47:54.124Z,21.95
2022-12-03T15:50:58.937Z,20.50
2022-12-03T15:54:04.019Z,21.02
2022-12-03T15:57:08.996Z,25.38
2022-12-03T16:00:14.551Z,21.13
2022-12-03T16:03:19.830Z,20.52
2022-12-03T16:06:24.700Z,20.08
2022-12-03T16:09:29.733Z,20.70
2022-12-03T16:12:34.566Z,20.25
2022-12-03T16:15:39.643Z,20.65
2022-12-03T16:18:44.226Z,22.13
2022-12-03T16:21:49.000Z,22.45
2022-12-03T16:24:53.930Z,22.63
2022-12-03T16:27:59.138Z,21.55
2022-12-03T16:31:05.095Z,22.80
2022-12-03T16:34:09.966Z,23.15
2022-12-03T16:37:14.677Z,21.88
2022-12-03T16:40:25.148Z,24.80
2022-12-03T16:43:30.161Z,18.25
2022-12-03T16:46:35.283Z,21.80
2022-12-03T16:49:40.081Z,20.85
2022-12-03T16:52:47.128Z,20.67
2022-12-03T16:55:52.190Z,20.38
2022-12-03T16:58:57.201Z,23.80
2022-12-03T17:02:02.205Z,20.95
2022-12-03T17:05:07.340Z,18.92
2022-12-03T17:08:12.476Z,19.55
2022-12-03T17:11:17.900Z,20.40
2022-12-03T17:14:27.291Z,20.92
2022-12-03T17:17:34.620Z,19.42
2022-12-03T17:20:39.577Z,21.23
2022-12-03T17:23:46.217Z,20.05
2022-12-03T17:26:51.488Z,20.95
2022-12-03T17:29:57.499Z,21.77
2022-12-03T17:33:02.281Z,22.05
2022-12-03T17:36:07.737Z,20.67
2022-12-03T17:39:12.522Z,19.48
2022-12-03T17:42:17.386Z,18.85
2022-12-03T17:45:22.455Z,19.08
2022-12-03T17:48:31.282Z,20.17
2022-12-03T17:51:36.565Z,19.45
2022-12-03T17:55:08.309Z,20.65
2022-12-03T17:58:06.940Z,19.77
2022-12-03T18:01:12.224Z,19.75
2022-12-03T18:04:17.678Z,20.98
2022-12-03T18:07:22.679Z,28.83
2022-12-03T18:10:27.542Z,26.88
2022-12-03T18:13:32.448Z,25.52
2022-12-03T18:16:37.481Z,27.75
2022-12-03T18:19:42.384Z,26.23
2022-12-03T18:22:47.195Z,26.17
2022-12-03T18:25:51.919Z,27.70
2022-12-03T18:28:56.638Z,30.55
2022-12-03T18:32:01.835Z,30.67
2022-12-03T18:35:07.175Z,31.63
2022-12-03T18:38:13.343Z,30.70
2022-12-03T18:41:19.458Z,30.23
2022-12-03T18:44:24.858Z,30.75
2022-12-03T18:47:31.023Z,29.17
2022-12-03T18:50:35.735Z,30.13
2022-12-03T18:53:40.315Z,24.05
2022-12-03T18:56:45.140Z,21.38
2022-12-03T18:59:50.017Z,20.60
2022-12-03T19:03:02.954Z,29.05
2022-12-03T19:06:19.790Z,26.88
2022-12-03T19:09:24.967Z,21.27
2022-12-03T19:12:31.065Z,21.10
2022-12-03T19:15:39.490Z,21.77
2022-12-03T19:18:44.751Z,20.45
2022-12-03T19:21:49.780Z,25.55
2022-12-03T19:24:54.570Z,28.15
2022-12-03T19:27:59.315Z,25.73
2022-12-03T19:31:22.279Z,25.50
2022-12-03T19:34:27.345Z,25.38
2022-12-03T19:37:33.737Z,25.98
2022-12-03T19:40:38.985Z,26.65
2022-12-03T19:43:52.599Z,27.52
2022-12-03T19:46:57.966Z,27.27
2022-12-03T19:50:04.492Z,20.88
2022-12-03T19:53:09.644Z,21.60
2022-12-03T19:56:19.853Z,19.80
2022-12-03T19:59:25.088Z,20.67
2022-12-03T20:02:29.909Z,19.73
2022-12-03T20:05:37.693Z,24.83
2022-12-03T20:08:42.271Z,25.65
2022-12-03T20:11:50.838Z,29.00
2022-12-03T20:14:55.950Z,29.30
2022-12-03T20:18:00.641Z,28.65
2022-12-03T20:21:06.407Z,29.35
2022-12-03T20:24:17.878Z,30.05
2022-12-03T20:27:23.126Z,28.10
2022-12-03T20:30:28.239Z,28.48
2022-12-03T20:33:33.528Z,24.92
2022-12-03T20:36:39.284Z,24.52
2022-12-03T20:39:44.205Z,24.33
2022-12-03T20:42:48.824Z,26.38
2022-12-03T20:45:58.050Z,26.60
2022-12-03T20:49:06.195Z,22.58
2022-12-03T20:52:11.088Z,20.90
2022-12-03T20:55:15.763Z,22.17
2022-12-03T20:58:20.635Z,22.67
2022-12-03T21:01:27.410Z,22.52
2022-12-03T21:04:32.532Z,23.13
2022-12-03T21:07:37.449Z,21.27
2022-12-03T21:10:45.650Z,22.77
2022-12-03T21:13:51.963Z,20.98
2022-12-03T21:17:08.286Z,21.58
2022-12-03T21:20:16.666Z,20.52
2022-12-03T21:23:25.591Z,22.60
2022-12-03T21:26:30.240Z,25.10
2022-12-03T21:29:35.082Z,31.33
2022-12-03T21:32:40.080Z,35.30
2022-12-03T21:35:45.272Z,35.88
2022-12-03T21:38:50.680Z,24.88
2022-12-03T21:42:19.349Z,25.60
2022-12-03T21:45:20.531Z,26.70
2022-12-03T21:48:25.196Z,22.25
2022-12-03T21:51:29.904Z,21.75
2022-12-03T21:54:34.567Z,20.10
2022-12-03T21:57:39.624Z,19.30
2022-12-03T22:00:44.423Z,17.98
2022-12-03T22:03:49.683Z,21.00
2022-12-03T22:06:54.965Z,17.88
2022-12-03T22:09:59.627Z,21.48
2022-12-03T22:13:04.513Z,17.45
2022-12-03T22:16:15.847Z,19.13
2022-12-03T22:19:24.680Z,20.77
2022-12-03T22:22:29.530Z,20.30
2022-12-03T22:25:34.410Z,20.10
2022-12-03T22:28:43.378Z,16.00
2022-12-03T22:31:48.651Z,22.17
2022-12-03T22:34:53.588Z,21.67
2022-12-03T22:37:58.526Z,21.48
2022-12-03T22:41:08.535Z,20.50
2022-12-03T22:44:13.309Z,20.90
2022-12-03T22:47:18.173Z,19.77
2022-12-03T22:50:23.182Z,21.48
2022-12-03T22:53:28.068Z,22.38
2022-12-03T22:56:33.177Z,22.95
2022-12-03T22:59:38.224Z,22.00
2022-12-03T23:02:43.054Z,23.48
2022-12-03T23:05:47.843Z,22.45
2022-12-03T23:08:52.991Z,23.00
2022-12-03T23:11:58.088Z,22.10
2022-12-03T23:15:03.693Z,20.83
2022-12-03T23:18:08.760Z,21.58
2022-12-03T23:21:30.134Z,26.10
2022-12-03T23:24:36.475Z,28.27
2022-12-03T23:27:42.513Z,27.42
2022-12-03T23:30:47.379Z,28.60
2022-12-03T23:33:53.400Z,29.02
2022-12-03T23:36:57.961Z,28.50
2022-12-03T23:40:03.242Z,32.92
2022-12-03T23:43:08.296Z,34.53
2022-12-03T23:46:21.956Z,30.55
2022-12-03T23:49:28.082Z,31.83
2022-12-03T23:52:35.993Z,30.50
2022-12-03T23:55:41.384Z,44.95
2022-12-03T23:58:46.767Z,33.22
